Time;durP1;ratioP1;P1;durP2;ratioP2;P2;SDS_P1;SDS_P2;PMS_P1;PMS_P2;Temp;Humidity;BMP_temperature;BMP_pressure;BME280_temperature;BME280_humidity;BME280_pressure;Samples;Min_cycle;Max_cycle;Signal;HPM_P1;HPM_P2
2023/09/13 07:23:19;;;;;;;40.53;33.22;;;;;;;-145.79;100.00;76944.91;5337676;27;20336;-67
2023/09/13 07:25:51;;;;;;;43.83;31.98;;;;;;;-145.79;100.00;76940.66;5317513;28;20036;-66
2023/09/13 07:28:23;;;;;;;40.40;32.40;;;;;;;-145.79;100.00;76932.19;5320822;28;20093;-67
2023/09/13 07:30:54;;;;;;;39.53;33.35;;;;;;;-145.79;100.00;76930.06;5322231;28;20031;-67
2023/09/13 07:33:26;;;;;;;38.38;34.15;;;;;;;-145.79;100.00;76915.22;5321727;28;20039;-67
2023/09/13 07:35:57;;;;;;;33.80;30.13;;;;;;;-145.79;100.00;76902.50;5320851;28;20020;-66
2023/09/13 07:38:28;;;;;;;31.80;27.80;;;;;;;-145.79;100.00;76898.25;5321175;28;20028;-66
2023/09/13 07:41:00;;;;;;;36.67;30.23;;;;;;;-145.79;100.00;76902.50;5321681;28;20027;-66
2023/09/13 07:43:31;;;;;;;38.40;31.33;;;;;;;-145.79;100.00;76894.03;5313495;28;20020;-68
2023/09/13 07:46:04;;;;;;;39.03;32.42;;;;;;;-145.79;100.00;76919.47;5321695;28;20035;-67
2023/09/13 07:48:35;;;;;;;36.03;31.00;;;;;;;-145.79;100.00;76919.47;5321200;28;20034;-66
2023/09/13 07:51:06;;;;;;;34.83;31.23;;;;;;;-145.79;100.00;76932.19;5321634;28;20027;-68
2023/09/13 07:53:38;;;;;;;37.20;32.50;;;;;;;-145.79;100.00;76936.41;5316000;28;20020;-67
2023/09/13 07:56:09;;;;;;;38.60;32.40;;;;;;;-145.79;100.00;76938.53;5320252;28;20078;-67
2023/09/13 07:58:41;;;;;;;20.98;17.48;;;;;;;-145.79;100.00;76978.81;5321162;28;20423;-68
2023/09/13 08:01:12;;;;;;;9.57;7.82;;;;;;;-145.79;99.06;77000.00;5316389;28;20425;-67
2023/09/13 08:03:45;;;;;;;5.03;4.35;;;;;;;-145.79;98.17;77012.72;5309110;28;20085;-68
2023/09/13 08:06:16;;;;;;;4.25;3.45;;;;;;;-145.79;97.69;77033.91;5317005;28;20028;-69
2023/09/13 08:08:48;;;;;;;4.50;3.33;;;;;;;-145.79;98.19;77029.66;5316119;28;20027;-69
2023/09/13 08:11:20;;;;;;;5.13;3.15;;;;;;;-145.79;99.17;77021.19;5316716;28;20034;-69
2023/09/13 08:13:51;;;;;;;4.95;3.63;;;;;;;-145.79;98.91;77019.06;5321298;28;20027;-68
2023/09/13 08:16:23;;;;;;;5.28;4.75;;;;;;;-145.79;99.31;76991.53;5317988;28;20067;-68
2023/09/13 08:18:55;;;;;;;2.90;2.60;;;;;;;-145.79;96.93;77004.25;5309934;28;20379;-67
2023/09/13 08:21:26;;;;;;;2.35;2.15;;;;;;;-145.79;94.96;77016.94;5320603;28;20054;-67
2023/09/13 08:23:59;;;;;;;6.93;3.42;;;;;;;-145.79;93.78;77055.09;5318635;28;20036;-67
2023/09/13 08:26:30;;;;;;;5.18;4.72;;;;;;;-145.79;93.95;77027.56;5313059;28;20027;-67
2023/09/13 08:29:03;;;;;;;1.63;1.45;;;;;;;-145.79;93.54;77050.88;5311204;28;20552;-66
2023/09/13 08:31:34;;;;;;;2.53;1.63;;;;;;;-145.79;93.65;77055.09;5313706;28;20047;-66
2023/09/13 08:34:06;;;;;;;1.38;1.20;;;;;;;-145.79;93.82;77050.88;5304963;28;20503;-67
2023/09/13 08:36:38;;;;;;;2.05;1.20;;;;;;;-145.79;92.64;77061.47;5304231;28;20085;-67
2023/09/13 08:39:10;;;;;;;3.50;1.45;;;;;;;-145.79;93.46;77029.66;5303386;28;20163;-68
2023/09/13 08:41:49;;;;;;;3.45;1.70;;;;;;;-145.79;92.43;77048.75;5305123;28;20016;-68
2023/09/13 08:44:22;;;;;;;1.65;1.30;;;;;;;-145.79;90.97;77067.81;5305300;28;20108;-68
2023/09/13 08:46:57;;;;;;;2.42;1.98;;;;;;;-145.79;92.41;77050.88;5299218;28;20411;-67
2023/09/13 08:49:30;;;;;;;1.42;1.20;;;;;;;-145.79;90.43;77072.06;5302976;28;20023;-67
2023/09/13 08:52:03;;;;;;;1.65;1.00;;;;;;;-145.79;89.71;77078.41;5299214;28;20475;-68
2023/09/13 08:54:36;;;;;;;2.72;1.10;;;;;;;-145.79;88.87;77078.41;5300787;28;20020;-68
2023/09/13 08:57:09;;;;;;;2.35;1.20;;;;;;;-145.79;87.91;77095.38;5301224;28;20110;-67
2023/09/13 08:59:42;;;;;;;0.70;0.70;;;;;;;-145.79;89.00;77095.38;5304466;28;20028;-67
2023/09/13 09:02:18;;;;;;;3.17;1.60;;;;;;;-145.79;88.45;77120.81;5305742;28;20081;-69
2023/09/13 09:04:51;;;;;;;2.20;0.98;;;;;;;-145.79;87.05;77133.53;5297584;28;20475;-68
2023/09/13 09:07:24;;;;;;;1.75;1.20;;;;;;;-145.79;87.02;77131.41;5301002;28;20024;-68
2023/09/13 09:09:58;;;;;;;2.75;0.98;;;;;;;-145.79;86.73;77101.72;5298672;28;20060;-68
2023/09/13 09:12:29;;;;;;;2.42;1.02;;;;;;;-145.79;86.70;77114.44;5300985;28;20119;-68
2023/09/13 09:15:01;;;;;;;2.35;1.17;;;;;;;-145.79;84.73;77114.44;5303070;28;20486;-68
2023/09/13 09:17:34;;;;;;;1.45;1.02;;;;;;;-145.79;83.41;77129.28;5305680;28;20050;-69
2023/09/13 09:20:06;;;;;;;3.08;2.65;;;;;;;-145.79;84.98;77139.88;5305070;28;20437;-68
2023/09/13 09:22:38;;;;;;;7.20;6.60;;;;;;;-145.79;86.11;77114.44;5301341;28;20051;-69
2023/09/13 09:25:11;;;;;;;2.97;1.70;;;;;;;-145.79;84.17;77125.03;5301587;28;20040;-68
2023/09/13 09:27:43;;;;;;;2.80;2.60;;;;;;;-145.79;83.26;77150.47;5304986;28;20391;-68
2023/09/13 09:30:15;;;;;;;3.25;1.30;;;;;;;-145.79;83.77;77120.81;5305591;28;20540;-67
2023/09/13 09:32:46;;;;;;;3.55;2.05;;;;;;;-145.79;84.98;77118.69;5305292;28;20028;-68
2023/09/13 09:35:17;;;;;;;7.60;2.78;;;;;;;-145.79;83.62;77144.13;5293517;28;20052;-68
2023/09/13 09:37:49;;;;;;;11.48;2.83;;;;;;;-145.79;84.02;77142.00;5299114;28;20476;-68
2023/09/13 09:40:20;;;;;;;4.10;1.38;;;;;;;-145.79;84.00;77127.16;5301387;28;20035;-68
2023/09/13 09:42:53;;;;;;;1.70;1.50;;;;;;;-145.79;83.51;77131.41;5298602;28;20032;-67
2023/09/13 09:45:25;;;;;;;1.75;1.10;;;;;;;-145.79;82.90;77131.41;5303029;28;20111;-68
2023/09/13 09:47:56;;;;;;;2.50;1.05;;;;;;;-145.79;82.99;77144.13;5303914;28;20103;-67
2023/09/13 09:50:31;;;;;;;1.50;1.33;;;;;;;-145.79;81.48;77156.84;5305118;28;20053;-68
2023/09/13 09:53:09;;;;;;;1.73;1.20;;;;;;;-145.79;81.69;77156.84;5298955;28;20036;-68
2023/09/13 09:55:41;;;;;;;1.98;1.30;;;;;;;-145.79;80.93;77161.06;5299445;28;20100;-68
2023/09/13 09:58:13;;;;;;;2.08;1.30;;;;;;;-145.79;80.82;77173.78;5300175;28;20410;-68
2023/09/13 10:00:49;;;;;;;2.35;1.88;;;;;;;-145.79;79.93;77178.03;5289518;28;20085;-69
2023/09/13 10:03:22;;;;;;;1.63;1.30;;;;;;;-145.79;80.29;77171.69;5297975;28;20107;-68
2023/09/13 10:06:06;;;;;;;1.70;1.10;;;;;;;-145.79;80.63;77137.75;5302278;28;20058;-68
2023/09/13 10:08:44;;;;;;;4.07;1.67;;;;;;;-145.79;81.26;77127.16;5304099;28;20047;-68
2023/09/13 10:11:22;;;;;;;2.30;1.13;;;;;;;-145.79;81.56;77116.56;5303928;28;20035;-68
2023/09/13 10:13:54;;;;;;;2.25;1.20;;;;;;;-145.79;80.87;77114.44;5303880;28;20025;-69
2023/09/13 10:16:30;;;;;;;2.75;1.30;;;;;;;-145.79;78.27;77144.13;5292148;28;20083;-68
2023/09/13 10:19:04;;;;;;;1.15;1.05;;;;;;;-145.79;80.01;77105.97;5292310;28;20021;-67
2023/09/13 10:21:37;;;;;;;2.30;1.60;;;;;;;-145.79;78.69;77110.22;5302496;28;20044;-68
2023/09/13 10:24:10;;;;;;;12.27;11.23;;;;;;;-145.79;79.34;77127.16;5303062;28;20035;-69
2023/09/13 10:26:42;;;;;;;2.92;1.83;;;;;;;-145.79;78.40;77142.00;5288572;28;20028;-68
2023/09/13 10:29:29;;;;;;;1.98;1.20;;;;;;;-145.79;79.92;77122.94;5283590;28;20032;-68
2023/09/13 10:32:14;;;;;;;1.60;1.50;;;;;;;-145.79;80.06;77114.44;5286342;28;20082;-69
2023/09/13 10:34:53;;;;;;;3.70;1.85;;;;;;;-145.79;79.03;77105.97;5303392;28;20451;-68
2023/09/13 10:37:47;;;;;;;1.63;1.38;;;;;;;-145.79;77.99;77091.13;5295802;28;20016;-68
2023/09/13 10:40:27;;;;;;;1.60;1.10;;;;;;;-145.79;76.46;77122.94;5302155;28;20028;-67
2023/09/13 10:43:00;;;;;;;2.63;1.10;;;;;;;-145.79;77.97;77110.22;5303822;28;20059;-67
2023/09/13 10:45:31;;;;;;;1.95;1.30;;;;;;;-145.79;75.97;77097.50;5303035;28;20024;-67
2023/09/13 10:48:04;;;;;;;1.67;1.55;;;;;;;-145.79;76.30;77120.81;5303650;28;20077;-67
2023/09/13 10:50:37;;;;;;;1.50;1.40;;;;;;;-145.79;76.03;77135.66;5291665;28;20094;-67
2023/09/13 10:53:10;;;;;;;1.40;1.25;;;;;;;-145.79;77.54;77114.44;5290410;28;20044;-69
2023/09/13 10:55:42;;;;;;;1.90;1.33;;;;;;;-145.79;77.51;77129.28;5295826;28;20036;-67
2023/09/13 10:58:20;;;;;;;2.13;1.58;;;;;;;-145.79;76.50;77110.22;5291234;28;20058;-67
2023/09/13 11:00:55;;;;;;;1.77;1.15;;;;;;;-145.79;75.97;77116.56;5291095;28;20383;-68
2023/09/13 11:03:27;;;;;;;2.05;1.20;;;;;;;-145.79;75.15;77131.41;5298234;28;20032;-67
2023/09/13 11:05:59;;;;;;;1.52;1.08;;;;;;;-145.79;75.76;77105.97;5294091;28;20112;-69
2023/09/13 11:08:32;;;;;;;2.13;1.30;;;;;;;-145.79;75.15;77120.81;5299410;28;20471;-69
2023/09/13 11:11:12;;;;;;;3.40;1.20;;;;;;;-145.79;75.92;77105.97;5288164;28;20400;-68
2023/09/13 11:13:53;;;;;;;1.20;0.95;;;;;;;-145.79;73.40;77129.28;5299253;28;20340;-68
2023/09/13 11:16:24;;;;;;;1.90;1.55;;;;;;;-145.79;74.04;77114.44;5300841;28;20360;-67
2023/09/13 11:18:56;;;;;;;3.90;3.22;;;;;;;-145.79;73.21;77120.81;5295302;28;20036;-67
2023/09/13 11:21:44;;;;;;;2.70;1.30;;;;;;;-145.79;73.40;77116.56;5301302;28;20040;-68
2023/09/13 11:24:33;;;;;;;4.90;3.03;;;;;;;-145.79;74.29;77097.50;5297164;28;20031;-68
2023/09/13 11:27:13;;;;;;;2.53;1.60;;;;;;;-145.79;73.40;77093.25;5302946;28;20360;-68
2023/09/13 11:29:51;;;;;;;1.88;1.27;;;;;;;-145.79;72.00;77095.38;5303484;28;20108;-68
2023/09/13 11:32:28;;;;;;;1.27;1.10;;;;;;;-145.79;71.63;77114.44;5301074;28;20102;-66
2023/09/13 11:35:01;;;;;;;2.35;1.60;;;;;;;-145.79;72.76;77089.00;5301961;28;20061;-67
2023/09/13 11:37:35;;;;;;;1.67;0.90;;;;;;;-145.79;70.12;77131.41;5303401;28;20020;-68
2023/09/13 11:40:10;;;;;;;1.77;1.20;;;;;;;-145.79;71.18;77129.28;5297294;28;20094;-67
2023/09/13 11:42:41;;;;;;;2.72;1.23;;;;;;;-145.79;71.45;77137.75;5296281;28;20032;-65
2023/09/13 11:45:13;;;;;;;3.15;1.05;;;;;;;-145.79;72.13;77161.06;5303141;28;20356;-66
2023/09/13 11:47:50;;;;;;;5.65;1.17;;;;;;;-145.79;71.37;77171.69;5301041;28;20163;-65
2023/09/13 11:50:22;;;;;;;2.25;1.10;;;;;;;-145.79;71.87;77169.56;5299658;28;20458;-65
2023/09/13 11:53:16;;;;;;;1.92;1.08;;;;;;;-145.79;73.13;77171.69;5303005;28;20020;-67
2023/09/13 11:55:54;;;;;;;5.30;1.48;;;;;;;-145.79;72.70;77152.59;5294953;28;20387;-67
2023/09/13 11:58:39;;;;;;;1.60;1.10;;;;;;;-145.79;72.91;77163.19;5295041;28;20483;-69
2023/09/13 12:01:10;;;;;;;3.00;1.42;;;;;;;-145.79;74.52;77148.34;5303362;28;20082;-69
2023/09/13 12:03:45;;;;;;;3.03;1.95;;;;;;;-145.79;72.32;77144.13;5302154;28;20032;-66
2023/09/13 12:06:17;;;;;;;1.77;1.38;;;;;;;-145.79;71.84;77169.56;5300389;28;20472;-67
2023/09/13 12:08:49;;;;;;;2.50;1.38;;;;;;;-145.79;72.25;77148.34;5295358;28;20031;-67
2023/09/13 12:11:21;;;;;;;2.22;1.33;;;;;;;-145.79;72.16;77146.25;5299357;28;20055;-67
2023/09/13 12:13:53;;;;;;;3.40;1.50;;;;;;;-145.79;71.43;77146.25;5306514;28;20028;-67
2023/09/13 12:16:25;;;;;;;1.98;1.40;;;;;;;-145.79;71.89;77133.53;5295014;28;20028;-67
2023/09/13 12:18:56;;;;;;;3.90;1.80;;;;;;;-145.79;70.90;77156.84;5306826;28;20039;-68
2023/09/13 12:21:27;;;;;;;2.35;1.20;;;;;;;-145.79;71.10;77122.94;5293702;28;20071;-68
2023/09/13 12:23:59;;;;;;;46.03;42.38;;;;;;;-145.79;70.42;77103.84;5305666;28;20047;-68
2023/09/13 12:26:31;;;;;;;4.30;3.90;;;;;;;-145.79;70.24;77046.63;5305185;28;20104;-68
2023/09/13 12:29:04;;;;;;;3.53;2.20;;;;;;;-145.79;68.46;77025.44;5305359;28;20036;-68
2023/09/13 12:31:36;;;;;;;4.45;2.45;;;;;;;-145.79;66.75;77065.69;5304768;28;20115;-67
2023/09/13 12:34:09;;;;;;;4.75;2.40;;;;;;;-145.79;67.04;77080.53;5306084;28;20024;-68
2023/09/13 12:36:41;;;;;;;4.20;1.90;;;;;;;-145.79;70.12;77089.00;5305514;28;20024;-68
2023/09/13 12:39:14;;;;;;;9.40;8.43;;;;;;;-145.79;66.99;77112.31;5306134;28;20103;-68
2023/09/13 12:41:46;;;;;;;5.97;2.47;;;;;;;-145.79;68.06;77127.16;5305823;28;20107;-68
2023/09/13 12:44:19;;;;;;;3.97;1.98;;;;;;;-145.79;67.02;77122.94;5304603;28;20067;-67
2023/09/13 12:46:51;;;;;;;3.95;2.30;;;;;;;-145.79;66.05;77125.03;5303415;28;20016;-66
2023/09/13 12:49:24;;;;;;;3.85;1.92;;;;;;;-145.79;66.92;77120.81;5298988;28;20059;-66
2023/09/13 12:51:56;;;;;;;2.38;1.90;;;;;;;-145.79;67.04;77067.81;5303485;28;20076;-67
2023/09/13 12:54:27;;;;;;;2.53;1.75;;;;;;;-145.79;63.26;77059.34;5299232;28;20414;-67
2023/09/13 12:57:05;;;;;;;3.10;2.13;;;;;;;-145.79;62.70;77029.66;5298162;28;20020;-67
2023/09/13 12:59:44;;;;;;;2.50;1.60;;;;;;;-145.79;62.22;77021.19;5296215;28;20395;-67
2023/09/13 13:02:16;;;;;;;4.63;2.22;;;;;;;-145.79;62.16;77046.63;5297467;28;20032;-67
2023/09/13 13:04:47;;;;;;;6.32;4.63;;;;;;;-145.79;62.58;77063.59;5297614;28;20024;-67
2023/09/13 13:07:24;;;;;;;5.93;2.88;;;;;;;-145.79;60.33;77040.25;5301535;28;20028;-67
2023/09/13 13:10:03;;;;;;;5.72;2.90;;;;;;;-145.79;60.23;77012.72;5304957;28;20028;-67
2023/09/13 13:12:35;;;;;;;3.22;1.67;;;;;;;-145.79;58.67;77065.69;5304693;28;20393;-67
2023/09/13 13:15:06;;;;;;;5.38;2.35;;;;;;;-145.79;60.04;77067.81;5305435;28;20051;-67
2023/09/13 13:17:38;;;;;;;3.88;1.90;;;;;;;-145.79;60.68;77089.00;5305136;28;20032;-66
2023/09/13 13:20:10;;;;;;;5.07;2.05;;;;;;;-145.79;60.87;77072.06;5305064;28;20028;-68
2023/09/13 13:22:42;;;;;;;3.70;1.70;;;;;;;-145.79;61.60;77052.97;5301769;28;20075;-68
2023/09/13 13:25:18;;;;;;;3.67;2.35;;;;;;;-145.79;59.15;77025.44;5305448;28;20032;-68
2023/09/13 13:27:51;;;;;;;3.97;1.73;;;;;;;-145.79;60.42;76957.59;5304582;28;20032;-67
2023/09/13 13:30:22;;;;;;;2.63;1.50;;;;;;;-145.79;59.26;76944.91;5305305;28;20021;-69
2023/09/13 13:32:53;;;;;;;9.88;8.88;;;;;;;-145.79;56.38;76940.66;5304515;28;20040;-67
2023/09/13 13:35:25;;;;;;;10.43;7.47;;;;;;;-145.79;56.70;76919.47;5305375;28;20096;-67
2023/09/13 13:37:56;;;;;;;5.10;3.13;;;;;;;-145.79;56.29;76936.41;5305268;28;20019;-67
2023/09/13 13:40:27;;;;;;;5.20;1.88;;;;;;;-145.79;57.47;76972.44;5302776;28;20061;-68
2023/09/13 13:42:59;;;;;;;3.80;1.70;;;;;;;-145.79;57.98;77002.13;5300007;28;20028;-68
2023/09/13 13:45:30;;;;;;;3.40;1.80;;;;;;;-145.79;58.45;77016.94;5293743;28;20070;-68
2023/09/13 13:48:02;;;;;;;3.25;1.83;;;;;;;-145.79;59.27;77027.56;5299023;28;20420;-68
2023/09/13 13:50:33;;;;;;;3.28;1.70;;;;;;;-145.79;60.01;77046.63;5302753;28;20082;-68
2023/09/13 13:53:05;;;;;;;2.80;1.42;;;;;;;-145.79;59.46;77055.09;5301500;28;20032;-68
2023/09/13 13:55:38;;;;;;;3.70;1.92;;;;;;;-145.79;60.50;77012.72;5294930;28;20066;-68
2023/09/13 13:58:09;;;;;;;15.25;13.52;;;;;;;-145.79;61.22;77059.34;5292943;28;20048;-68
2023/09/13 14:00:41;;;;;;;4.43;2.30;;;;;;;-145.79;63.19;77097.50;5301914;28;20116;-68
2023/09/13 14:03:12;;;;;;;3.63;1.88;;;;;;;-145.79;64.07;77129.28;5304017;28;20039;-71
2023/09/13 14:05:44;;;;;;;5.10;2.58;;;;;;;-145.79;65.11;77110.22;5298456;28;20526;-68
2023/09/13 14:08:20;;;;;;;5.13;2.20;;;;;;;-145.79;66.26;77131.41;5299974;28;20106;-70
2023/09/13 14:10:55;;;;;;;4.63;2.50;;;;;;;-145.79;67.12;77133.53;5300057;28;20123;-71
2023/09/13 14:13:27;;;;;;;3.10;2.17;;;;;;;-145.79;67.66;77156.84;5302286;28;20038;-70
2023/09/13 14:15:59;;;;;;;3.67;2.25;;;;;;;-145.79;67.49;77131.41;5288328;28;20070;-68
2023/09/13 14:18:30;;;;;;;4.13;2.53;;;;;;;-145.79;67.36;77112.31;5301370;28;20040;-69
2023/09/13 14:21:02;;;;;;;3.50;1.88;;;;;;;-145.79;67.20;77105.97;5296913;28;20028;-69
2023/09/13 14:23:33;;;;;;;5.57;2.13;;;;;;;-145.79;67.62;77089.00;5289593;28;20035;-68
2023/09/13 14:26:06;;;;;;;3.63;2.10;;;;;;;-145.79;65.73;77080.53;5302458;28;20024;-68
2023/09/13 14:28:37;;;;;;;5.97;2.40;;;;;;;-145.79;65.69;77063.59;5304689;28;20111;-68
2023/09/13 14:31:11;;;;;;;3.28;1.92;;;;;;;-145.79;65.21;77110.22;5297121;28;20099;-67
2023/09/13 14:33:45;;;;;;;2.60;2.05;;;;;;;-145.79;65.44;77099.63;5302220;28;20470;-67
2023/09/13 14:36:19;;;;;;;4.18;1.70;;;;;;;-145.79;64.17;77131.41;5286943;28;20024;-69
2023/09/13 14:38:54;;;;;;;3.53;2.53;;;;;;;-145.79;65.82;77137.75;5302783;28;20147;-68
2023/09/13 14:41:25;;;;;;;8.53;5.60;;;;;;;-145.79;65.01;77127.16;5304029;28;20028;-68
2023/09/13 14:43:56;;;;;;;3.25;1.90;;;;;;;-145.79;64.85;77110.22;5302716;28;20031;-68
2023/09/13 14:46:28;;;;;;;4.53;1.65;;;;;;;-145.79;64.85;77129.28;5288933;28;20386;-67
2023/09/13 14:48:59;;;;;;;5.60;1.80;;;;;;;-145.79;64.71;77127.16;5297367;28;20078;-68
2023/09/13 14:51:31;;;;;;;2.88;1.88;;;;;;;-145.79;64.55;77118.69;5303137;28;20115;-68
2023/09/13 14:54:03;;;;;;;4.70;1.90;;;;;;;-145.79;64.79;77118.69;5303974;28;20031;-67
2023/09/13 14:56:34;;;;;;;5.25;2.90;;;;;;;-145.79;65.96;77093.25;5304724;28;20494;-69
2023/09/13 14:59:06;;;;;;;2.75;1.63;;;;;;;-145.79;64.42;77103.84;5303365;28;20028;-68
2023/09/13 15:01:37;;;;;;;5.15;2.22;;;;;;;-145.79;64.66;77105.97;5301987;28;20383;-68
2023/09/13 15:04:10;;;;;;;4.70;2.03;;;;;;;-145.79;64.62;77099.63;5303767;28;20056;-68
2023/09/13 15:06:41;;;;;;;12.95;11.80;;;;;;;-145.79;63.48;77093.25;5301605;28;20027;-69
2023/09/13 15:09:12;;;;;;;4.60;2.80;;;;;;;-145.79;62.35;77091.13;5302976;28;20406;-68
2023/09/13 15:11:45;;;;;;;2.50;1.40;;;;;;;-145.79;62.08;77110.22;5293499;28;20028;-68
2023/09/13 15:14:17;;;;;;;4.00;1.60;;;;;;;-145.79;62.57;77139.88;5301068;28;20095;-69
2023/09/13 15:16:49;;;;;;;2.03;1.42;;;;;;;-145.79;62.23;77131.41;5295716;28;20678;-69
2023/09/13 15:19:20;;;;;;;3.83;1.98;;;;;;;-145.79;62.78;77112.31;5293024;28;20039;-70
2023/09/13 15:21:52;;;;;;;3.42;2.28;;;;;;;-145.79;62.67;77122.94;5290103;28;20052;-69
2023/09/13 15:24:25;;;;;;;3.15;2.80;;;;;;;-145.79;62.78;77114.44;5299220;28;20024;-69
2023/09/13 15:26:56;;;;;;;4.10;2.05;;;;;;;-145.79;63.24;77122.94;5301496;28;20704;-68
2023/09/13 15:29:27;;;;;;;3.28;1.55;;;;;;;-145.79;63.65;77120.81;5300588;28;20035;-71
2023/09/13 15:31:59;;;;;;;6.20;2.17;;;;;;;-145.79;63.95;77110.22;5301050;28;20138;-71
2023/09/13 15:34:30;;;;;;;2.63;1.77;;;;;;;-145.79;64.03;77108.09;5302280;28;20027;-70
2023/09/13 15:37:02;;;;;;;19.85;18.10;;;;;;;-145.79;62.92;77116.56;5295748;28;20395;-68
2023/09/13 15:39:34;;;;;;;5.35;2.97;;;;;;;-145.79;63.34;77112.31;5292888;28;20024;-71
2023/09/13 15:42:07;;;;;;;4.32;2.30;;;;;;;-145.79;64.12;77122.94;5300186;28;20024;-70
2023/09/13 15:44:38;;;;;;;10.65;9.18;;;;;;;-145.79;64.36;77110.22;5303658;28;20028;-70
2023/09/13 15:47:10;;;;;;;4.45;3.10;;;;;;;-145.79;64.29;77110.22;5306540;28;20032;-70
2023/09/13 15:49:41;;;;;;;7.07;3.13;;;;;;;-145.79;63.60;77105.97;5303443;28;20036;-70
2023/09/13 15:52:12;;;;;;;4.30;1.67;;;;;;;-145.79;63.28;77110.22;5304997;28;20044;-70
2023/09/13 15:54:44;;;;;;;8.57;7.45;;;;;;;-145.79;62.79;77105.97;5305168;28;20472;-71
2023/09/13 15:57:16;;;;;;;4.07;1.90;;;;;;;-145.79;62.21;77114.44;5301548;28;20028;-71
2023/09/13 15:59:48;;;;;;;6.85;5.50;;;;;;;-145.79;60.51;77095.38;5306857;28;20032;-70
2023/09/13 16:02:19;;;;;;;3.03;2.38;;;;;;;-145.79;61.01;77097.50;5305863;28;20086;-71
2023/09/13 16:04:50;;;;;;;4.18;2.50;;;;;;;-145.79;59.62;77108.09;5304823;28;20020;-71
2023/09/13 16:07:22;;;;;;;3.92;2.30;;;;;;;-145.79;60.04;77089.00;5295482;28;20025;-69
2023/09/13 16:09:53;;;;;;;2.97;1.63;;;;;;;-145.79;59.13;77093.25;5299747;28;20041;-69
2023/09/13 16:12:24;;;;;;;9.38;6.68;;;;;;;-145.79;59.69;77072.06;5295085;28;20031;-69
2023/09/13 16:14:56;;;;;;;3.35;1.70;;;;;;;-145.79;59.22;77084.78;5306050;28;20028;-70
2023/09/13 16:17:28;;;;;;;2.42;1.70;;;;;;;-145.79;58.85;77095.38;5307134;28;20145;-70
2023/09/13 16:19:59;;;;;;;3.25;2.03;;;;;;;-145.79;59.25;77105.97;5306649;28;20024;-69
2023/09/13 16:22:31;;;;;;;3.67;1.85;;;;;;;-145.79;60.16;77110.22;5305970;28;20063;-69
2023/09/13 16:25:03;;;;;;;2.22;1.55;;;;;;;-145.79;57.18;77127.16;5307051;28;20024;-69
2023/09/13 16:27:34;;;;;;;3.25;1.90;;;;;;;-145.79;55.90;77137.75;5305463;28;20024;-69
2023/09/13 16:30:06;;;;;;;3.80;1.90;;;;;;;-145.79;55.79;77144.13;5301392;28;20524;-69
2023/09/13 16:32:38;;;;;;;4.22;2.30;;;;;;;-145.79;55.53;77148.34;5306815;28;20477;-69
2023/09/13 16:35:10;;;;;;;4.25;2.88;;;;;;;-145.79;55.09;77156.84;5306648;28;20027;-68
2023/09/13 16:37:41;;;;;;;4.13;2.20;;;;;;;-145.79;55.13;77156.84;5295952;28;20050;-69
2023/09/13 16:40:13;;;;;;;2.58;2.00;;;;;;;-145.79;55.67;77146.25;5304377;28;20483;-70
2023/09/13 16:42:44;;;;;;;2.63;1.80;;;;;;;-145.79;55.89;77158.97;5305079;28;20474;-69
2023/09/13 16:45:15;;;;;;;2.45;1.95;;;;;;;-145.79;56.60;77178.03;5306303;28;20024;-69
2023/09/13 16:47:48;;;;;;;2.85;1.98;;;;;;;-145.79;57.61;77190.75;5300250;28;20030;-70
2023/09/13 16:50:20;;;;;;;4.13;2.20;;;;;;;-145.79;58.40;77199.22;5305306;28;20021;-67
2023/09/13 16:52:51;;;;;;;3.47;1.90;;;;;;;-145.79;58.99;77190.75;5306385;28;20016;-69
2023/09/13 16:55:22;;;;;;;2.10;1.77;;;;;;;-145.79;59.72;77195.00;5303053;28;20031;-69
